createdAt,value
2022-08-03T00:01:31.465Z,1.30
2022-08-03T00:03:59.100Z,1.50
2022-08-03T00:06:26.501Z,1.25
2022-08-03T00:08:53.855Z,1.40
2022-08-03T00:11:21.482Z,1.60
2022-08-03T00:13:48.870Z,1.30
2022-08-03T00:16:16.560Z,1.50
2022-08-03T00:18:44.716Z,1.50
2022-08-03T00:21:12.145Z,1.40
2022-08-03T00:23:51.736Z,1.52
2022-08-03T00:26:23.174Z,1.30
2022-08-03T00:28:50.943Z,1.33
2022-08-03T00:31:37.986Z,1.58
2022-08-03T00:34:06.873Z,1.40
2022-08-03T00:36:34.338Z,1.42
2022-08-03T00:39:01.792Z,1.50
2022-08-03T00:41:29.392Z,1.70
2022-08-03T00:43:56.724Z,1.80
2022-08-03T00:46:24.075Z,1.77
2022-08-03T00:48:53.444Z,1.60
2022-08-03T00:51:21.749Z,1.45
2022-08-03T00:53:49.952Z,1.80
2022-08-03T00:56:17.927Z,1.60
2022-08-03T00:58:46.675Z,2.47
2022-08-03T01:01:15.076Z,1.55
2022-08-03T01:03:42.966Z,1.50
2022-08-03T01:06:25.952Z,1.90
2022-08-03T01:08:59.559Z,1.70
2022-08-03T01:11:34.639Z,1.83
2022-08-03T01:14:18.665Z,1.98
2022-08-03T01:17:07.600Z,1.95
2022-08-03T01:19:50.805Z,1.92
2022-08-03T01:22:57.777Z,1.70
2022-08-03T01:25:59.321Z,2.10
2022-08-03T01:28:34.168Z,1.90
2022-08-03T01:31:08.222Z,1.70
2022-08-03T01:33:39.888Z,2.00
2022-08-03T01:36:15.496Z,1.73
2022-08-03T01:38:48.075Z,1.77
2022-08-03T01:41:20.517Z,1.60
2022-08-03T01:43:58.901Z,2.08
2022-08-03T01:46:40.683Z,2.05
2022-08-03T01:49:17.838Z,1.87
2022-08-03T01:52:03.521Z,2.05
2022-08-03T01:54:43.837Z,1.80
2022-08-03T01:57:13.595Z,1.98
2022-08-03T01:59:43.026Z,2.20
2022-08-03T02:02:33.623Z,1.80
2022-08-03T02:05:10.625Z,1.90
2022-08-03T02:07:41.354Z,1.87
2022-08-03T02:10:10.714Z,1.87
2022-08-03T02:12:39.138Z,2.10
2022-08-03T02:15:08.277Z,2.00
2022-08-03T02:17:38.535Z,1.83
2022-08-03T02:20:12.452Z,2.30
2022-08-03T02:22:42.675Z,2.08
2022-08-03T02:25:12.610Z,2.00
2022-08-03T02:34:28.776Z,1.95
2022-08-03T02:37:00.487Z,1.90
2022-08-03T02:39:30.795Z,2.05
2022-08-03T02:42:03.784Z,2.20
2022-08-03T02:44:34.200Z,2.30
2022-08-03T02:47:06.729Z,2.00
2022-08-03T02:49:51.707Z,1.85
2022-08-03T02:52:22.308Z,2.03
2022-08-03T02:54:53.712Z,2.12
2022-08-03T02:57:23.956Z,2.30
2022-08-03T02:59:53.293Z,2.20
2022-08-03T03:02:22.548Z,2.20
2022-08-03T03:04:59.722Z,2.40
2022-08-03T03:07:51.501Z,2.55
2022-08-03T03:10:21.953Z,2.45
2022-08-03T03:12:55.002Z,2.47
2022-08-03T03:15:23.859Z,2.22
2022-08-03T03:17:52.049Z,1.98
2022-08-03T03:20:29.289Z,2.30
2022-08-03T03:23:01.645Z,2.50
2022-08-03T03:25:33.073Z,2.28
2022-08-03T03:28:01.115Z,2.60
2022-08-03T03:30:30.087Z,2.70
2022-08-03T03:32:58.654Z,2.62
2022-08-03T03:35:27.673Z,2.60
2022-08-03T03:37:55.270Z,2.35
2022-08-03T03:40:22.787Z,2.78
2022-08-03T03:42:50.797Z,2.78
2022-08-03T03:45:18.446Z,3.10
2022-08-03T03:47:45.791Z,2.97
2022-08-03T03:50:15.551Z,2.97
2022-08-03T03:52:42.937Z,2.58
2022-08-03T03:55:10.342Z,2.85
2022-08-03T03:57:38.468Z,2.92
2022-08-03T04:00:07.018Z,2.87
2022-08-03T04:02:34.283Z,3.35
2022-08-03T04:05:20.451Z,3.47
2022-08-03T04:08:17.038Z,3.10
2022-08-03T04:11:00.830Z,3.40
2022-08-03T04:13:39.988Z,2.95
2022-08-03T04:16:09.439Z,2.72
2022-08-03T04:18:39.385Z,3.22
2022-08-03T04:21:09.577Z,3.47
2022-08-03T04:23:40.839Z,3.08
2022-08-03T04:26:10.245Z,3.10
2022-08-03T04:28:39.853Z,3.30
2022-08-03T04:31:07.626Z,3.22
2022-08-03T04:33:37.477Z,3.50
2022-08-03T04:36:08.015Z,2.87
2022-08-03T04:38:39.523Z,2.70
2022-08-03T04:41:07.953Z,3.25
2022-08-03T04:43:35.660Z,3.30
2022-08-03T04:46:03.129Z,2.70
2022-08-03T04:48:30.989Z,3.00
2022-08-03T04:50:58.381Z,3.25
2022-08-03T04:53:25.761Z,3.20
2022-08-03T04:55:53.405Z,2.92
2022-08-03T04:58:20.725Z,2.90
2022-08-03T05:00:51.344Z,3.00
2022-08-03T05:03:24.351Z,3.12
2022-08-03T05:06:01.960Z,2.83
2022-08-03T05:08:46.244Z,3.03
2022-08-03T05:11:16.997Z,3.17
2022-08-03T05:13:45.365Z,3.28
2022-08-03T05:16:13.926Z,3.08
2022-08-03T05:18:42.303Z,3.35
2022-08-03T05:21:11.026Z,3.30
2022-08-03T05:23:38.396Z,3.30
2022-08-03T05:26:05.742Z,3.53
2022-08-03T05:28:33.369Z,3.30
2022-08-03T05:31:00.742Z,2.83
2022-08-03T05:33:28.689Z,3.22
2022-08-03T05:36:03.571Z,3.20
2022-08-03T05:38:34.257Z,2.90
2022-08-03T05:41:22.765Z,2.95
2022-08-03T05:43:53.745Z,3.00
2022-08-03T05:46:23.169Z,3.17
2022-08-03T05:48:50.698Z,3.33
2022-08-03T05:51:18.166Z,3.15
2022-08-03T05:53:46.265Z,3.35
2022-08-03T05:56:16.311Z,3.12
2022-08-03T05:58:47.991Z,2.97
2022-08-03T06:01:16.642Z,2.70
2022-08-03T06:03:45.528Z,3.20
2022-08-03T06:06:12.981Z,3.28
2022-08-03T06:08:41.625Z,3.33
2022-08-03T06:11:09.827Z,2.87
2022-08-03T06:13:37.352Z,3.78
2022-08-03T06:16:05.364Z,3.12
2022-08-03T06:18:33.017Z,3.33
2022-08-03T06:21:14.495Z,3.40
2022-08-03T06:23:53.356Z,3.30
2022-08-03T06:26:26.948Z,3.10
2022-08-03T06:28:55.459Z,3.15
2022-08-03T06:31:26.009Z,3.20
2022-08-03T06:34:33.509Z,3.00
2022-08-03T06:36:52.466Z,3.40
2022-08-03T06:39:23.395Z,3.17
2022-08-03T06:41:52.259Z,3.40
2022-08-03T06:44:20.094Z,3.37
2022-08-03T06:46:47.848Z,3.87
2022-08-03T06:49:15.370Z,3.40
2022-08-03T06:52:04.442Z,3.50
2022-08-03T06:54:33.326Z,3.25
2022-08-03T06:57:01.274Z,3.40
2022-08-03T07:00:06.231Z,3.83
2022-08-03T07:02:19.257Z,3.20
2022-08-03T07:04:50.271Z,3.40
2022-08-03T07:07:19.404Z,3.03
2022-08-03T07:09:56.520Z,3.55
2022-08-03T07:12:29.596Z,3.17
2022-08-03T07:15:01.838Z,3.62
2022-08-03T07:17:33.599Z,3.17
2022-08-03T07:20:02.191Z,3.25
2022-08-03T07:22:30.036Z,3.70
2022-08-03T07:24:57.431Z,3.20
2022-08-03T07:27:27.044Z,3.45
2022-08-03T07:29:55.449Z,3.50
2022-08-03T07:32:23.473Z,3.40
2022-08-03T07:34:51.084Z,3.60
2022-08-03T07:37:18.800Z,3.45
2022-08-03T07:39:46.181Z,3.22
2022-08-03T07:42:13.710Z,3.37
2022-08-03T07:44:41.682Z,3.72
2022-08-03T07:47:09.271Z,3.50
2022-08-03T07:49:41.332Z,4.05
2022-08-03T07:52:28.378Z,3.30
2022-08-03T07:54:55.979Z,3.50
2022-08-03T07:57:23.843Z,3.33
2022-08-03T08:00:01.505Z,3.55
2022-08-03T08:02:40.068Z,3.30
2022-08-03T08:05:08.143Z,3.78
2022-08-03T08:07:35.515Z,3.33
2022-08-03T08:10:03.014Z,3.33
2022-08-03T08:12:30.710Z,3.08
2022-08-03T08:14:58.353Z,3.53
2022-08-03T08:17:25.727Z,3.70
2022-08-03T08:19:53.585Z,3.70
2022-08-03T08:22:25.859Z,3.40
2022-08-03T08:25:01.581Z,3.17
2022-08-03T08:28:28.995Z,3.35
2022-08-03T08:30:19.562Z,3.47
2022-08-03T08:32:47.772Z,3.10
2022-08-03T08:35:15.493Z,2.92
2022-08-03T08:37:43.498Z,3.30
2022-08-03T08:40:21.496Z,3.12
2022-08-03T08:42:58.290Z,3.22
2022-08-03T08:45:28.061Z,2.95
2022-08-03T08:48:01.005Z,3.33
2022-08-03T08:50:30.943Z,3.10
2022-08-03T08:53:02.988Z,3.15
2022-08-03T08:55:59.796Z,3.30
2022-08-03T08:58:19.792Z,2.90
2022-08-03T09:00:48.628Z,2.85
2022-08-03T09:03:26.181Z,3.05
2022-08-03T09:06:02.337Z,2.97
2022-08-03T09:08:31.393Z,3.42
2022-08-03T09:10:59.475Z,3.12
2022-08-03T09:13:27.017Z,3.05
2022-08-03T09:16:15.286Z,2.65
2022-08-03T09:18:44.470Z,3.42
2022-08-03T09:21:34.757Z,2.97
2022-08-03T09:24:06.296Z,2.60
2022-08-03T09:26:36.001Z,2.78
2022-08-03T09:29:10.896Z,3.05
2022-08-03T09:31:44.059Z,2.90
2022-08-03T09:34:16.800Z,3.00
2022-08-03T09:36:48.774Z,2.35
2022-08-03T09:39:41.446Z,2.55
2022-08-03T09:42:18.392Z,2.97
2022-08-03T09:44:48.103Z,2.42
2022-08-03T09:47:28.420Z,2.40
2022-08-03T09:50:02.315Z,2.90
2022-08-03T09:52:49.297Z,2.42
2022-08-03T09:56:34.032Z,2.45
2022-08-03T09:58:14.334Z,2.90
2022-08-03T10:01:05.229Z,2.78
2022-08-03T10:04:03.106Z,3.40
2022-08-03T10:06:28.945Z,3.12
2022-08-03T10:09:11.215Z,2.70
2022-08-03T10:11:42.051Z,2.83
2022-08-03T10:14:18.886Z,3.17
2022-08-03T10:16:47.579Z,2.70
2022-08-03T10:19:15.942Z,2.90
2022-08-03T10:22:03.868Z,2.50
2022-08-03T10:24:35.175Z,2.60
2022-08-03T10:27:05.500Z,2.70
2022-08-03T10:29:38.458Z,2.65
2022-08-03T10:32:24.212Z,2.28
2022-08-03T10:35:00.215Z,2.75
2022-08-03T10:37:34.818Z,2.50
2022-08-03T10:40:02.957Z,2.47
2022-08-03T10:42:31.921Z,2.70
2022-08-03T10:45:07.868Z,2.47
2022-08-03T10:47:36.308Z,2.40
2022-08-03T10:50:04.344Z,2.47
2022-08-03T10:52:38.253Z,2.70
2022-08-03T10:55:59.313Z,2.72
2022-08-03T10:58:53.451Z,2.20
2022-08-03T11:02:00.823Z,2.42
2022-08-03T11:04:30.184Z,2.70
2022-08-03T11:07:22.933Z,2.58
2022-08-03T11:09:50.526Z,2.70
2022-08-03T11:12:28.426Z,2.53
2022-08-03T11:15:02.356Z,2.37
2022-08-03T11:17:30.129Z,1.77
2022-08-03T11:19:58.550Z,2.15
2022-08-03T11:22:48.988Z,2.08
2022-08-03T11:25:54.403Z,1.85
2022-08-03T11:28:27.054Z,1.92
2022-08-03T11:30:54.822Z,2.28
2022-08-03T11:33:31.573Z,2.50
2022-08-03T11:36:01.244Z,2.50
2022-08-03T11:38:28.692Z,2.55
2022-08-03T11:40:56.076Z,2.50
2022-08-03T11:43:31.359Z,2.28
2022-08-03T11:46:06.119Z,2.20
2022-08-03T11:48:33.595Z,2.10
2022-08-03T11:51:01.990Z,2.25
2022-08-03T11:53:29.357Z,2.30
2022-08-03T11:55:59.806Z,2.58
2022-08-03T11:59:01.644Z,2.50
2022-08-03T12:01:22.884Z,2.15
2022-08-03T12:03:51.941Z,1.95
2022-08-03T12:06:19.556Z,2.40
2022-08-03T12:09:15.822Z,2.42
2022-08-03T12:11:59.406Z,2.47
2022-08-03T12:14:48.419Z,2.40
2022-08-03T12:17:18.159Z,2.30
2022-08-03T12:19:45.713Z,2.40
2022-08-03T12:22:13.634Z,2.47
2022-08-03T12:24:46.848Z,2.00
2022-08-03T12:27:24.105Z,2.20
2022-08-03T12:29:58.561Z,2.15
2022-08-03T12:32:27.474Z,2.30
2022-08-03T12:35:01.856Z,2.30
2022-08-03T12:37:29.961Z,2.40
2022-08-03T12:40:07.912Z,2.00
2022-08-03T12:42:39.410Z,2.22
2022-08-03T12:45:27.354Z,2.10
2022-08-03T12:47:57.524Z,2.30
2022-08-03T12:50:29.455Z,2.10
2022-08-03T12:52:57.762Z,2.00
2022-08-03T12:55:57.855Z,2.10
2022-08-03T12:58:35.377Z,2.12
2022-08-03T13:01:09.526Z,1.90
2022-08-03T13:03:49.921Z,1.90
2022-08-03T13:06:25.948Z,2.20
2022-08-03T13:09:04.925Z,1.85
2022-08-03T13:11:53.625Z,2.00
2022-08-03T13:14:20.669Z,2.05
2022-08-03T13:16:49.705Z,1.83
2022-08-03T13:19:17.150Z,1.80
2022-08-03T13:21:53.476Z,1.95
2022-08-03T13:24:33.084Z,1.95
2022-08-03T13:27:00.899Z,1.77
2022-08-03T13:29:48.514Z,1.80
2022-08-03T13:32:16.111Z,2.05
2022-08-03T13:34:43.642Z,1.77
2022-08-03T13:37:12.151Z,2.05
2022-08-03T13:39:57.955Z,2.30
2022-08-03T13:42:29.439Z,1.92
2022-08-03T13:44:56.929Z,2.10
2022-08-03T13:47:24.436Z,2.28
2022-08-03T13:50:00.118Z,2.12
2022-08-03T13:52:31.883Z,2.17
2022-08-03T13:55:00.310Z,2.22
2022-08-03T13:58:04.793Z,1.87
2022-08-03T14:00:27.658Z,2.10
2022-08-03T14:03:12.884Z,2.15
2022-08-03T14:05:42.156Z,2.40
2022-08-03T14:08:10.147Z,2.05
2022-08-03T14:10:40.082Z,2.08
2022-08-03T14:13:07.691Z,2.15
2022-08-03T14:15:38.035Z,2.00
2022-08-03T14:18:15.727Z,2.08
2022-08-03T14:20:50.323Z,2.00
2022-08-03T14:23:21.793Z,2.10
2022-08-03T14:25:52.526Z,2.40
2022-08-03T14:28:22.941Z,2.12
2022-08-03T14:30:51.526Z,2.10
2022-08-03T14:33:19.014Z,2.25
2022-08-03T14:35:46.463Z,2.35
2022-08-03T14:38:14.377Z,2.03
2022-08-03T14:40:42.170Z,2.12
2022-08-03T14:43:09.572Z,2.10
2022-08-03T14:45:37.211Z,1.83
2022-08-03T14:50:32.847Z,2.10
2022-08-03T14:50:53.058Z,2.15
2022-08-03T14:53:20.854Z,2.00
2022-08-03T14:55:51.333Z,2.10
2022-08-03T14:58:21.193Z,1.92
2022-08-03T15:00:50.275Z,2.05
2022-08-03T15:03:20.460Z,1.80
2022-08-03T15:05:48.320Z,2.20
2022-08-03T15:08:16.028Z,2.00
2022-08-03T15:10:44.901Z,2.12
2022-08-03T15:13:13.473Z,2.22
2022-08-03T15:15:41.188Z,1.90
2022-08-03T15:18:08.655Z,2.03
2022-08-03T15:20:44.582Z,1.95
2022-08-03T15:23:14.263Z,2.25
2022-08-03T15:26:03.612Z,2.20
2022-08-03T15:28:30.825Z,2.03
2022-08-03T15:30:58.682Z,2.10
2022-08-03T15:33:26.063Z,2.20
2022-08-03T15:35:53.511Z,2.30
2022-08-03T15:38:26.257Z,2.17
2022-08-03T15:40:54.740Z,2.12
2022-08-03T15:43:23.271Z,2.12
2022-08-03T15:46:19.083Z,2.05
2022-08-03T15:48:39.333Z,2.20
2022-08-03T15:51:07.776Z,2.12
2022-08-03T15:53:35.165Z,1.95
2022-08-03T15:56:09.389Z,1.92
2022-08-03T15:59:09.822Z,1.87
2022-08-03T16:01:26.761Z,2.50
2022-08-03T16:03:54.429Z,2.35
2022-08-03T16:06:34.725Z,2.22
2022-08-03T16:09:23.742Z,2.00
2022-08-03T16:11:55.328Z,2.00
2022-08-03T16:14:34.662Z,2.10
2022-08-03T16:17:05.374Z,2.05
2022-08-03T16:19:33.011Z,2.03
2022-08-03T16:22:00.971Z,1.98
2022-08-03T16:24:28.540Z,2.60
2022-08-03T16:26:56.849Z,1.80
2022-08-03T16:29:24.386Z,2.33
2022-08-03T16:31:52.838Z,1.75
2022-08-03T16:34:21.231Z,2.12
2022-08-03T16:36:48.643Z,2.22
2022-08-03T16:39:16.061Z,2.15
2022-08-03T16:41:53.957Z,1.77
2022-08-03T16:44:29.997Z,1.90
2022-08-03T16:46:58.619Z,2.08
2022-08-03T16:49:54.748Z,2.05
2022-08-03T16:52:13.944Z,2.10
2022-08-03T16:54:44.544Z,2.00
2022-08-03T16:57:59.263Z,2.00
2022-08-03T17:00:12.404Z,1.90
2022-08-03T17:03:01.235Z,2.25
2022-08-03T17:05:43.782Z,1.90
2022-08-03T17:08:15.726Z,2.22
2022-08-03T17:10:45.941Z,2.20
2022-08-03T17:13:21.892Z,2.10
2022-08-03T17:16:00.962Z,1.98
2022-08-03T17:18:35.342Z,2.22
2022-08-03T17:23:50.786Z,1.77
2022-08-03T17:26:21.929Z,2.20
2022-08-03T17:28:57.758Z,1.92
2022-08-03T17:31:31.344Z,2.05
2022-08-03T17:36:53.922Z,2.10
2022-08-03T17:39:23.561Z,2.72
2022-08-03T17:42:00.843Z,2.58
2022-08-03T17:44:42.838Z,2.25
2022-08-03T17:47:13.922Z,2.12
2022-08-03T17:49:46.629Z,2.55
2022-08-03T17:52:18.158Z,2.20
2022-08-03T17:55:55.680Z,2.17
2022-08-03T17:58:06.509Z,2.20
2022-08-03T18:00:54.064Z,2.22
2022-08-03T18:03:58.404Z,2.37
2022-08-03T18:06:31.629Z,2.20
2022-08-03T18:09:04.833Z,2.20
2022-08-03T18:11:37.124Z,2.55
2022-08-03T18:14:16.400Z,2.30
2022-08-03T18:16:46.396Z,2.75
2022-08-03T18:19:14.671Z,2.75
2022-08-03T18:22:03.366Z,2.83
2022-08-03T18:24:31.172Z,3.05
2022-08-03T18:26:59.619Z,2.33
2022-08-03T18:29:30.609Z,2.10
2022-08-03T18:32:03.066Z,2.42
2022-08-03T18:34:34.250Z,2.35
2022-08-03T18:37:07.317Z,2.67
2022-08-03T18:39:49.810Z,2.92
2022-08-03T18:42:20.089Z,2.62
2022-08-03T18:44:55.947Z,2.50
2022-08-03T18:50:58.995Z,2.30
2022-08-03T18:54:01.757Z,2.50
2022-08-03T18:56:20.622Z,2.80
2022-08-03T18:59:02.247Z,2.55
2022-08-03T19:01:59.581Z,2.65
2022-08-03T19:04:35.089Z,2.45
2022-08-03T19:07:08.917Z,2.58
2022-08-03T19:10:09.352Z,2.65
2022-08-03T19:12:51.856Z,2.15
2022-08-03T19:15:36.550Z,2.42
2022-08-03T19:18:08.749Z,2.97
2022-08-03T19:20:38.644Z,2.40
2022-08-03T19:23:06.731Z,2.40
2022-08-03T19:25:38.674Z,2.90
2022-08-03T19:28:09.074Z,2.62
2022-08-03T19:30:40.023Z,2.78
2022-08-03T19:33:14.256Z,3.30
2022-08-03T19:35:55.472Z,2.70
2022-08-03T19:38:27.515Z,2.70
2022-08-03T19:41:03.029Z,2.58
2022-08-03T19:43:58.090Z,2.53
2022-08-03T19:46:30.939Z,2.40
2022-08-03T19:49:10.547Z,3.10
2022-08-03T19:52:00.759Z,3.17
2022-08-03T19:54:39.614Z,2.87
2022-08-03T19:57:18.395Z,3.10
2022-08-03T19:59:49.971Z,2.87
2022-08-03T20:02:26.375Z,2.55
2022-08-03T20:04:59.797Z,2.70
2022-08-03T20:07:30.970Z,2.50
2022-08-03T20:12:49.970Z,2.62
2022-08-03T20:18:05.458Z,2.72
2022-08-03T20:20:46.249Z,2.78
2022-08-03T20:23:17.599Z,2.80
2022-08-03T20:25:57.431Z,2.40
2022-08-03T20:28:33.045Z,2.58
2022-08-03T20:31:01.987Z,2.25
2022-08-03T20:33:45.879Z,2.40
2022-08-03T20:36:18.506Z,2.55
2022-08-03T20:38:51.000Z,2.50
2022-08-03T20:41:19.988Z,2.62
2022-08-03T20:43:49.398Z,2.30
2022-08-03T20:46:31.684Z,2.58
2022-08-03T20:49:04.830Z,2.80
2022-08-03T20:51:50.578Z,3.05
2022-08-03T20:54:29.578Z,2.80
2022-08-03T20:57:03.434Z,2.47
2022-08-03T20:59:46.806Z,2.70
2022-08-03T21:02:19.906Z,2.50
2022-08-03T21:05:03.702Z,2.40
2022-08-03T21:07:45.619Z,2.37
2022-08-03T21:10:31.209Z,2.55
2022-08-03T21:13:00.464Z,2.40
2022-08-03T21:13:03.563Z,2.80
2022-08-03T21:13:10.957Z,2.60
2022-08-03T21:13:16.712Z,2.50
2022-08-03T21:16:04.732Z,2.50
2022-08-03T21:18:39.452Z,2.40
2022-08-03T21:21:08.596Z,2.50
2022-08-03T21:23:47.966Z,2.25
2022-08-03T21:26:24.799Z,2.28
2022-08-03T21:28:54.156Z,2.28
2022-08-03T21:31:25.667Z,2.60
2022-08-03T21:34:00.312Z,2.37
2022-08-03T21:36:31.633Z,2.20
2022-08-03T21:38:59.477Z,2.10
2022-08-03T21:41:29.161Z,2.12
2022-08-03T21:43:57.300Z,2.00
2022-08-03T21:46:26.952Z,2.50
2022-08-03T21:49:51.900Z,2.20
2022-08-03T21:51:45.362Z,1.83
2022-08-03T21:54:13.428Z,2.10
2022-08-03T21:56:43.293Z,2.20
2022-08-03T21:59:17.550Z,2.00
2022-08-03T22:01:45.953Z,2.10
2022-08-03T22:04:50.363Z,1.90
2022-08-03T22:07:08.163Z,2.10
2022-08-03T22:09:36.704Z,1.70
2022-08-03T22:12:04.767Z,1.77
2022-08-03T22:14:33.148Z,2.00
2022-08-03T22:17:06.357Z,1.90
2022-08-03T22:19:34.591Z,1.70
2022-08-03T22:22:06.023Z,1.92
2022-08-03T22:24:35.574Z,1.67
2022-08-03T22:27:22.542Z,1.70
2022-08-03T22:29:51.057Z,1.80
2022-08-03T22:32:18.939Z,1.87
2022-08-03T22:34:47.649Z,1.80
2022-08-03T22:37:20.526Z,1.77
2022-08-03T22:39:50.281Z,1.80
2022-08-03T22:42:20.062Z,1.80
2022-08-03T22:44:49.934Z,1.77
2022-08-03T22:47:22.550Z,1.50
2022-08-03T22:50:30.683Z,1.83
2022-08-03T22:52:42.207Z,1.70
2022-08-03T22:55:12.424Z,1.77
2022-08-03T22:57:55.631Z,2.03
2022-08-03T23:00:23.871Z,1.50
2022-08-03T23:02:53.889Z,1.55
2022-08-03T23:06:01.532Z,1.50
2022-08-03T23:08:14.914Z,1.50
2022-08-03T23:10:46.996Z,1.30
2022-08-03T23:13:16.974Z,1.42
2022-08-03T23:15:52.010Z,1.67
2022-08-03T23:18:21.381Z,1.50
2022-08-03T23:20:53.202Z,1.77
2022-08-03T23:23:20.866Z,1.90
2022-08-03T23:25:50.198Z,2.20
2022-08-03T23:28:17.788Z,1.77
2022-08-03T23:30:45.702Z,1.70
2022-08-03T23:33:16.892Z,1.80
2022-08-03T23:36:18.755Z,2.15
2022-08-03T23:38:45.056Z,1.55
2022-08-03T23:41:12.809Z,1.70
2022-08-03T23:43:51.439Z,1.73
2022-08-03T23:46:21.957Z,1.40
2022-08-03T23:48:50.825Z,1.45
2022-08-03T23:51:36.454Z,1.50
2022-08-03T23:54:20.133Z,1.73
2022-08-03T23:57:06.295Z,1.50
2022-08-03T23:59:52.527Z,1.60
